Aviation Digital Data Service (ADDS)

Output produced by METARs form (0136 UTC 20 January 2022)
found at http://www.aviationweather.gov/metar/data/
 
METAR text: KANK 200115Z AUTO 12010G18KT 10SM CLR M05/M08 A3023 RMK AO1 T10551078
Conditions at: KANK (SALIDA , CO, US) observed 0115 UTC 20 January 2022
Temperature: -5.5°C (22°F)
Dewpoint: -7.8°C (18°F) [RH = 84%]
Pressure (altimeter): 30.23 inches Hg (1023.8 mb)
Winds: from the ESE (120 degrees) at 12 MPH (10 knots; 5.1 m/s)
gusting to 21 MPH (18 knots; 9.3 m/s)
Visibility: 10 or more miles (16+ km)
Ceiling: at least 12,000 feet AGL
Clouds: sky clear below 12,000 feet AGL
Weather: automated observation with no human augmentation;
there may or may not be significant weather present at this time

METAR text: KANK 200055Z AUTO 12013G17KT 10SM CLR M05/M08 A3021 RMK AO1 T10531078
Conditions at: KANK (SALIDA , CO, US) observed 0055 UTC 20 January 2022
Temperature: -5.3°C (22°F)
Dewpoint: -7.8°C (18°F) [RH = 83%]
Pressure (altimeter): 30.21 inches Hg (1023.1 mb)
Winds: from the ESE (120 degrees) at 15 MPH (13 knots; 6.7 m/s)
gusting to 20 MPH (17 knots; 8.7 m/s)
Visibility: 10 or more miles (16+ km)
Ceiling: at least 12,000 feet AGL
Clouds: sky clear below 12,000 feet AGL
Weather: automated observation with no human augmentation;
there may or may not be significant weather present at this time